createdAt,value
2017-11-09T00:00:20.858Z,42.50
2017-11-09T00:02:50.809Z,38.17
2017-11-09T00:05:23.585Z,36.80
2017-11-09T00:07:50.528Z,33.13
2017-11-09T00:10:17.388Z,33.87
2017-11-09T00:12:44.325Z,34.70
2017-11-09T00:15:11.213Z,34.90
2017-11-09T00:17:40.108Z,33.30
2017-11-09T00:20:07.792Z,33.93
2017-11-09T00:22:34.659Z,34.70
2017-11-09T00:25:01.598Z,28.43
2017-11-09T00:27:28.561Z,27.33
2017-11-09T00:29:55.513Z,32.30
2017-11-09T00:32:22.386Z,31.70
2017-11-09T00:34:49.252Z,29.33
2017-11-09T00:37:16.927Z,28.10
2017-11-09T00:39:43.881Z,24.83
2017-11-09T00:42:10.746Z,27.60
2017-11-09T00:44:37.673Z,32.37
2017-11-09T00:47:04.628Z,34.40
2017-11-09T00:49:31.497Z,24.50
2017-11-09T00:51:58.431Z,25.80
2017-11-09T00:54:25.299Z,28.03
2017-11-09T00:56:52.209Z,27.90
2017-11-09T00:59:19.146Z,31.37
2017-11-09T01:01:46.024Z,26.90
2017-11-09T01:04:12.968Z,28.60
2017-11-09T01:06:39.922Z,26.30
2017-11-09T01:09:06.800Z,33.00
2017-11-09T01:11:34.496Z,32.67
2017-11-09T01:14:01.425Z,28.97
2017-11-09T01:16:28.306Z,27.03
2017-11-09T01:18:55.286Z,27.87
2017-11-09T01:21:22.184Z,25.40
2017-11-09T01:23:49.061Z,31.53
2017-11-09T01:26:16.008Z,29.90
2017-11-09T01:28:42.867Z,22.00
2017-11-09T01:31:10.624Z,30.83
2017-11-09T01:33:37.958Z,28.63
2017-11-09T01:36:04.872Z,23.67
2017-11-09T01:38:31.888Z,27.83
2017-11-09T01:40:59.586Z,25.60
2017-11-09T01:43:26.465Z,26.80
2017-11-09T01:45:53.428Z,24.73
2017-11-09T01:48:20.356Z,24.43
2017-11-09T01:50:47.316Z,30.43
2017-11-09T01:53:14.308Z,29.50
2017-11-09T01:55:41.193Z,29.07
2017-11-09T01:58:08.163Z,28.50
2017-11-09T02:00:35.173Z,28.20
2017-11-09T02:03:02.222Z,31.20
2017-11-09T02:05:29.130Z,33.67
2017-11-09T02:07:56.046Z,28.40
2017-11-09T02:10:23.024Z,26.57
2017-11-09T02:12:49.897Z,28.37
2017-11-09T02:15:16.792Z,28.13
2017-11-09T02:17:43.773Z,30.67
2017-11-09T02:20:10.716Z,33.97
2017-11-09T02:22:37.812Z,33.27
2017-11-09T02:25:04.761Z,37.73
2017-11-09T02:27:31.839Z,35.23
2017-11-09T02:29:58.878Z,32.50
2017-11-09T02:32:25.946Z,36.23
2017-11-09T02:34:52.932Z,40.87
2017-11-09T02:37:19.910Z,34.27
2017-11-09T02:39:46.884Z,32.90
2017-11-09T02:42:14.550Z,36.73
2017-11-09T02:44:41.433Z,38.77
2017-11-09T02:47:08.427Z,39.80
2017-11-09T02:49:35.377Z,36.00
2017-11-09T02:52:02.365Z,33.80
2017-11-09T02:54:31.085Z,39.20
2017-11-09T02:56:58.109Z,37.37
2017-11-09T02:59:27.026Z,41.87
2017-11-09T03:01:53.994Z,37.63
2017-11-09T03:04:20.926Z,43.30
2017-11-09T03:06:47.816Z,37.97
2017-11-09T03:09:14.770Z,39.40
2017-11-09T03:11:41.707Z,37.83
2017-11-09T03:14:08.664Z,40.00
2017-11-09T03:16:35.533Z,35.90
2017-11-09T03:19:02.406Z,36.13
2017-11-09T03:21:29.348Z,40.50
2017-11-09T03:23:56.301Z,44.23
2017-11-09T03:26:23.247Z,44.50
2017-11-09T03:28:50.161Z,37.50
2017-11-09T03:31:17.038Z,40.03
2017-11-09T03:33:43.969Z,43.33
2017-11-09T03:36:10.869Z,41.70
2017-11-09T03:38:37.753Z,43.20
2017-11-09T03:41:04.689Z,42.83
2017-11-09T03:43:31.651Z,39.73
2017-11-09T03:45:58.718Z,42.33
2017-11-09T03:48:25.629Z,49.97
2017-11-09T03:50:52.570Z,45.73
2017-11-09T03:53:19.535Z,50.80
2017-11-09T03:55:46.401Z,46.33
2017-11-09T03:58:13.270Z,42.60
2017-11-09T04:00:40.203Z,38.83
2017-11-09T04:03:07.808Z,42.60
2017-11-09T04:05:34.794Z,46.97
2017-11-09T04:08:01.763Z,50.20
2017-11-09T04:10:29.452Z,44.60
2017-11-09T04:12:56.472Z,43.40
2017-11-09T04:15:23.436Z,56.57
2017-11-09T04:17:50.342Z,55.07
2017-11-09T04:20:17.243Z,57.83
2017-11-09T04:22:44.217Z,57.30
2017-11-09T04:25:11.100Z,64.33
2017-11-09T04:27:38.092Z,63.67
2017-11-09T04:30:04.989Z,58.90
2017-11-09T04:32:32.694Z,56.10
2017-11-09T04:34:59.578Z,59.43
2017-11-09T04:37:26.472Z,65.13
2017-11-09T04:39:53.453Z,63.90
2017-11-09T04:42:20.360Z,70.77
2017-11-09T04:44:47.297Z,64.47
2017-11-09T04:47:14.226Z,65.63
2017-11-09T04:49:42.626Z,63.37
2017-11-09T04:52:09.560Z,64.40
2017-11-09T04:54:37.273Z,66.40
2017-11-09T04:57:04.225Z,66.03
2017-11-09T04:59:31.152Z,71.50
2017-11-09T05:01:58.096Z,59.13
2017-11-09T05:04:25.029Z,77.13
2017-11-09T05:06:51.956Z,68.13
2017-11-09T05:09:18.929Z,87.63
2017-11-09T05:11:46.463Z,69.40
2017-11-09T05:14:13.363Z,69.73
2017-11-09T05:16:40.389Z,79.33
2017-11-09T05:19:07.268Z,79.90
2017-11-09T05:21:34.161Z,77.40
2017-11-09T05:24:01.240Z,85.10
2017-11-09T05:26:32.638Z,63.20
2017-11-09T05:29:00.532Z,67.80
2017-11-09T05:31:27.466Z,74.63
2017-11-09T05:33:57.356Z,81.03
2017-11-09T05:36:25.132Z,62.13
2017-11-09T05:38:53.501Z,74.50
2017-11-09T05:41:20.471Z,68.23
2017-11-09T05:43:48.172Z,79.43
2017-11-09T05:46:15.071Z,73.17
2017-11-09T05:48:53.933Z,73.80
2017-11-09T05:51:22.584Z,65.20
2017-11-09T05:53:50.288Z,70.40
2017-11-09T05:56:17.268Z,75.13
2017-11-09T05:58:44.275Z,73.80
2017-11-09T06:01:13.724Z,80.27
2017-11-09T06:03:41.517Z,81.43
2017-11-09T06:06:09.902Z,73.43
2017-11-09T06:08:38.847Z,76.90
2017-11-09T06:11:07.878Z,79.57
2017-11-09T06:13:34.813Z,80.53
2017-11-09T06:16:02.367Z,84.70
2017-11-09T06:18:30.170Z,72.57
2017-11-09T06:20:57.852Z,78.20
2017-11-09T06:23:25.215Z,86.50
2017-11-09T06:25:52.324Z,80.80
2017-11-09T06:28:19.277Z,86.03
2017-11-09T06:30:48.837Z,85.60
2017-11-09T06:33:15.952Z,74.60
2017-11-09T06:35:42.953Z,78.83
2017-11-09T06:38:09.841Z,66.37
2017-11-09T06:40:40.092Z,84.57
2017-11-09T06:43:08.219Z,80.60
2017-11-09T06:45:35.344Z,83.10
2017-11-09T06:48:02.289Z,87.75
2017-11-09T06:50:29.775Z,87.03
2017-11-09T06:52:56.799Z,101.33
2017-11-09T06:55:23.707Z,97.07
2017-11-09T06:57:50.581Z,95.73
2017-11-09T07:00:17.531Z,93.63
2017-11-09T07:02:44.437Z,91.43
2017-11-09T07:05:11.329Z,94.20
2017-11-09T07:07:38.278Z,91.83
2017-11-09T07:10:05.269Z,99.53
2017-11-09T07:12:33.203Z,96.97
2017-11-09T07:15:10.314Z,94.00
2017-11-09T07:17:37.959Z,81.40
2017-11-09T07:20:05.701Z,86.10
2017-11-09T07:22:32.621Z,85.37
2017-11-09T07:24:59.528Z,82.40
2017-11-09T07:27:27.330Z,87.50
2017-11-09T07:29:54.273Z,88.60
2017-11-09T07:32:21.241Z,86.83
2017-11-09T07:34:48.218Z,87.73
2017-11-09T07:37:15.110Z,81.47
2017-11-09T07:39:42.072Z,80.30
2017-11-09T07:42:08.982Z,82.30
2017-11-09T07:44:35.917Z,83.07
2017-11-09T07:47:02.909Z,77.13
2017-11-09T07:49:29.837Z,81.50
2017-11-09T07:51:56.809Z,88.33
2017-11-09T07:54:23.803Z,87.63
2017-11-09T07:56:51.457Z,91.53
2017-11-09T07:59:18.377Z,81.70
2017-11-09T08:01:45.738Z,89.60
2017-11-09T08:04:12.645Z,75.20
2017-11-09T08:06:41.495Z,77.97
2017-11-09T08:09:09.277Z,73.70
2017-11-09T08:11:36.242Z,87.67
2017-11-09T08:14:03.174Z,73.47
2017-11-09T08:16:30.478Z,72.87
2017-11-09T08:18:57.478Z,74.07
2017-11-09T08:21:24.450Z,75.93
2017-11-09T08:23:51.405Z,81.00
2017-11-09T08:26:19.891Z,78.30
2017-11-09T08:28:47.812Z,78.07
2017-11-09T08:31:24.816Z,81.20
2017-11-09T08:33:51.678Z,80.83
2017-11-09T08:36:18.704Z,78.77
2017-11-09T08:38:45.604Z,70.10
2017-11-09T08:41:12.571Z,66.43
2017-11-09T08:43:40.199Z,67.73
2017-11-09T08:46:07.096Z,76.47
2017-11-09T08:48:34.058Z,74.47
2017-11-09T08:51:01.165Z,73.70
2017-11-09T08:53:28.033Z,67.00
2017-11-09T08:55:54.970Z,76.10
2017-11-09T08:58:22.673Z,76.67
2017-11-09T09:00:49.589Z,65.97
2017-11-09T09:03:16.657Z,73.10
2017-11-09T09:05:43.542Z,77.87
2017-11-09T09:08:10.421Z,75.13
2017-11-09T09:10:38.203Z,71.80
2017-11-09T09:13:05.161Z,72.80
2017-11-09T09:15:32.177Z,68.83
2017-11-09T09:18:05.791Z,75.97
2017-11-09T09:20:50.121Z,69.10
2017-11-09T09:23:21.062Z,67.63
2017-11-09T09:25:52.250Z,73.67
2017-11-09T09:28:34.856Z,74.00
2017-11-09T09:31:01.932Z,71.40
2017-11-09T09:33:31.502Z,75.27
2017-11-09T09:36:03.838Z,70.00
2017-11-09T09:38:34.469Z,66.67
2017-11-09T09:41:01.490Z,73.27
2017-11-09T09:43:28.453Z,69.07
2017-11-09T09:45:55.456Z,67.97
2017-11-09T09:48:22.426Z,72.80
2017-11-09T09:50:49.431Z,70.33
2017-11-09T09:53:17.041Z,68.63
2017-11-09T09:55:44.021Z,60.13
2017-11-09T09:58:10.905Z,67.40
2017-11-09T10:00:37.973Z,67.20
2017-11-09T10:03:04.861Z,68.17
2017-11-09T10:05:31.757Z,67.77
2017-11-09T10:07:58.706Z,71.13
2017-11-09T10:10:25.681Z,65.30
2017-11-09T10:12:52.542Z,61.77
2017-11-09T10:15:19.476Z,62.33
2017-11-09T10:17:46.425Z,67.20
2017-11-09T10:20:13.382Z,66.17
2017-11-09T10:22:40.329Z,65.33
2017-11-09T10:25:07.321Z,56.03
2017-11-09T10:27:34.269Z,57.67
2017-11-09T10:30:01.150Z,60.50
2017-11-09T10:32:30.130Z,63.70
2017-11-09T10:34:57.022Z,63.63
2017-11-09T10:37:24.021Z,62.27
2017-11-09T10:39:50.877Z,63.70
2017-11-09T10:42:17.837Z,63.90
2017-11-09T10:44:44.737Z,58.07
2017-11-09T10:47:11.700Z,56.57
2017-11-09T10:49:38.607Z,56.50
2017-11-09T10:52:06.901Z,59.03
2017-11-09T10:54:33.930Z,61.03
2017-11-09T10:57:01.588Z,58.10
2017-11-09T10:59:28.584Z,54.63
2017-11-09T11:01:55.545Z,52.67
2017-11-09T11:04:22.526Z,63.40
2017-11-09T11:06:49.538Z,54.70
2017-11-09T11:09:16.496Z,55.30
2017-11-09T11:11:43.350Z,57.00
2017-11-09T11:14:10.292Z,59.70
2017-11-09T11:16:37.185Z,57.20
2017-11-09T11:19:04.146Z,57.20
2017-11-09T11:21:31.021Z,55.70
2017-11-09T11:23:58.004Z,57.47
2017-11-09T11:26:24.944Z,54.90
2017-11-09T11:28:52.651Z,59.50
2017-11-09T11:31:19.626Z,61.70
2017-11-09T11:33:46.491Z,63.23
2017-11-09T11:36:13.482Z,60.43
2017-11-09T11:38:40.345Z,56.77
2017-11-09T11:41:07.308Z,63.33
2017-11-09T11:43:34.172Z,68.03
2017-11-09T11:46:01.164Z,55.50
2017-11-09T11:48:28.148Z,59.73
2017-11-09T11:50:55.027Z,61.50
2017-11-09T11:53:22.016Z,56.07
2017-11-09T11:55:48.918Z,54.87
2017-11-09T11:58:16.644Z,61.73
2017-11-09T12:00:43.609Z,59.00
2017-11-09T12:03:11.381Z,54.90
2017-11-09T12:05:38.343Z,58.73
2017-11-09T12:08:05.207Z,58.30
2017-11-09T12:10:32.165Z,65.97
2017-11-09T12:12:59.063Z,55.10
2017-11-09T12:15:25.987Z,53.93
2017-11-09T12:17:52.945Z,54.80
2017-11-09T12:20:19.857Z,51.53
2017-11-09T12:22:46.841Z,47.37
2017-11-09T12:25:13.710Z,49.50
2017-11-09T12:27:40.592Z,51.10
2017-11-09T12:30:07.600Z,46.37
2017-11-09T12:32:35.238Z,51.20
2017-11-09T12:35:02.191Z,41.53
2017-11-09T12:37:29.071Z,46.07
2017-11-09T12:39:56.029Z,47.83
2017-11-09T12:42:22.941Z,40.07
2017-11-09T12:44:49.945Z,40.53
2017-11-09T12:47:16.898Z,35.70
2017-11-09T12:49:43.885Z,37.30
2017-11-09T12:52:11.557Z,36.93
2017-11-09T12:54:39.193Z,33.73
2017-11-09T12:57:06.108Z,33.87
2017-11-09T12:59:33.186Z,36.20
2017-11-09T13:02:00.203Z,35.63
2017-11-09T13:04:27.125Z,37.27
2017-11-09T13:06:54.258Z,40.17
2017-11-09T13:09:21.291Z,32.67
2017-11-09T13:11:48.669Z,35.57
2017-11-09T13:14:15.718Z,32.80
2017-11-09T13:16:42.764Z,40.43
2017-11-09T13:19:09.901Z,36.03
2017-11-09T13:21:38.038Z,40.90
2017-11-09T13:24:07.997Z,36.93
2017-11-09T13:26:35.939Z,38.30
2017-11-09T13:29:05.403Z,35.87
2017-11-09T13:31:32.448Z,42.10
2017-11-09T13:34:03.653Z,40.70
2017-11-09T13:36:38.915Z,41.27
2017-11-09T13:39:06.763Z,34.47
2017-11-09T13:41:33.712Z,35.23
2017-11-09T13:44:01.346Z,41.47
2017-11-09T13:46:37.284Z,37.00
2017-11-09T13:49:11.419Z,38.37
2017-11-09T13:51:38.373Z,42.03
2017-11-09T13:54:08.036Z,42.50
2017-11-09T13:56:43.718Z,38.30
2017-11-09T13:59:14.095Z,38.23
2017-11-09T14:01:43.054Z,38.40
2017-11-09T14:04:12.247Z,39.27
2017-11-09T14:06:39.195Z,44.27
2017-11-09T14:09:07.164Z,41.43
2017-11-09T14:11:34.179Z,44.30
2017-11-09T14:14:01.550Z,49.07
2017-11-09T14:16:33.769Z,39.33
2017-11-09T14:19:03.790Z,38.23
2017-11-09T14:21:32.319Z,38.93
2017-11-09T14:24:00.546Z,42.80
2017-11-09T14:26:27.504Z,43.60
2017-11-09T14:28:54.526Z,45.27
2017-11-09T14:31:21.429Z,45.43
2017-11-09T14:33:55.387Z,40.37
2017-11-09T14:36:22.906Z,37.87
2017-11-09T14:38:58.364Z,42.83
2017-11-09T14:41:25.712Z,36.87
2017-11-09T14:43:52.644Z,39.63
2017-11-09T14:46:27.521Z,43.00
2017-11-09T14:48:55.702Z,44.90
2017-11-09T14:51:27.723Z,39.63
2017-11-09T14:53:58.476Z,35.87
2017-11-09T14:56:28.081Z,38.53
2017-11-09T15:01:45.409Z,40.03
2017-11-09T15:04:19.510Z,40.80
2017-11-09T15:06:51.579Z,37.27
2017-11-09T15:09:24.708Z,41.00
2017-11-09T15:11:53.048Z,35.33
2017-11-09T15:14:20.266Z,31.50
2017-11-09T15:16:49.118Z,37.13
2017-11-09T15:19:16.133Z,36.10
2017-11-09T15:21:43.048Z,40.57
2017-11-09T15:24:16.439Z,36.73
2017-11-09T15:26:50.982Z,40.53
2017-11-09T15:29:18.015Z,38.57
2017-11-09T15:31:50.103Z,43.00
2017-11-09T15:34:19.088Z,33.93
2017-11-09T15:36:49.920Z,40.73
2017-11-09T15:39:20.361Z,38.03
2017-11-09T15:41:49.483Z,42.00
2017-11-09T15:44:16.741Z,37.50
2017-11-09T15:46:54.844Z,38.07
2017-11-09T15:49:25.081Z,37.60
2017-11-09T15:51:52.751Z,34.80
2017-11-09T15:54:19.669Z,38.30
2017-11-09T15:56:47.560Z,35.83
2017-11-09T15:59:19.406Z,47.00
2017-11-09T16:01:46.424Z,43.30
2017-11-09T16:04:14.124Z,42.07
2017-11-09T16:06:47.184Z,40.40
2017-11-09T16:09:14.838Z,42.43
2017-11-09T16:11:41.902Z,46.20
2017-11-09T16:14:08.966Z,46.33
2017-11-09T16:16:35.886Z,48.97
2017-11-09T16:19:05.413Z,48.00
2017-11-09T16:21:32.455Z,48.13
2017-11-09T16:23:59.692Z,45.87
2017-11-09T16:26:26.793Z,46.93
2017-11-09T16:28:59.682Z,43.73
2017-11-09T16:31:28.991Z,39.67
2017-11-09T16:33:56.172Z,39.10
2017-11-09T16:36:29.456Z,42.97
2017-11-09T16:38:57.402Z,44.20
2017-11-09T16:41:24.755Z,42.90
2017-11-09T16:43:51.799Z,44.20
2017-11-09T16:46:18.719Z,43.63
2017-11-09T16:48:49.560Z,43.40
2017-11-09T16:51:16.770Z,43.37
2017-11-09T16:53:52.492Z,41.63
2017-11-09T16:56:20.822Z,49.30
2017-11-09T16:59:02.507Z,40.10
2017-11-09T17:01:30.024Z,41.13
2017-11-09T17:03:56.971Z,42.97
2017-11-09T17:06:24.069Z,40.73
2017-11-09T17:08:50.962Z,42.80
2017-11-09T17:11:18.877Z,44.00
2017-11-09T17:13:46.498Z,42.30
2017-11-09T17:16:19.429Z,41.30
2017-11-09T17:18:47.269Z,39.90
2017-11-09T17:21:29.396Z,41.33
2017-11-09T17:23:59.388Z,43.10
2017-11-09T17:26:29.773Z,48.70
2017-11-09T17:29:01.688Z,45.40
2017-11-09T17:31:28.859Z,44.97
2017-11-09T17:34:10.592Z,43.73
2017-11-09T17:36:40.930Z,46.67
2017-11-09T17:39:19.442Z,43.43
2017-11-09T17:42:02.066Z,39.60
2017-11-09T17:44:40.491Z,44.30
2017-11-09T17:47:21.230Z,40.43
2017-11-09T17:49:51.631Z,43.70
2017-11-09T17:52:19.375Z,40.47
2017-11-09T17:54:46.270Z,38.73
2017-11-09T17:57:18.403Z,44.30
2017-11-09T17:59:51.403Z,40.37
2017-11-09T18:02:18.349Z,47.23
2017-11-09T18:04:45.236Z,42.40
2017-11-09T18:07:12.174Z,40.57
2017-11-09T18:09:39.071Z,43.33
2017-11-09T18:12:06.855Z,43.50
2017-11-09T18:14:33.737Z,42.63
2017-11-09T18:17:00.668Z,38.53
2017-11-09T18:19:28.368Z,47.57
2017-11-09T18:21:55.284Z,38.07
2017-11-09T18:24:22.260Z,33.63
2017-11-09T18:26:49.222Z,33.53
2017-11-09T18:29:16.201Z,40.40
2017-11-09T18:31:43.143Z,41.53
2017-11-09T18:34:10.909Z,37.43
2017-11-09T18:36:37.980Z,41.60
2017-11-09T18:39:05.014Z,42.10
2017-11-09T18:41:32.056Z,41.40
2017-11-09T18:43:58.999Z,43.73
2017-11-09T18:46:27.762Z,41.63
2017-11-09T18:48:54.851Z,41.70
2017-11-09T18:51:23.218Z,42.40
2017-11-09T18:53:52.731Z,39.60
2017-11-09T18:56:22.452Z,38.27
2017-11-09T18:58:50.036Z,42.10
2017-11-09T19:01:18.301Z,37.67
2017-11-09T19:03:48.005Z,34.90
2017-11-09T19:06:24.918Z,39.07
2017-11-09T19:08:55.375Z,38.77
2017-11-09T19:11:22.588Z,38.53
2017-11-09T19:13:50.930Z,29.87
2017-11-09T19:16:23.345Z,37.93
2017-11-09T19:18:56.901Z,38.43
2017-11-09T19:21:24.912Z,33.03
2017-11-09T19:23:53.237Z,35.50
2017-11-09T19:26:21.670Z,32.53
2017-11-09T19:28:49.833Z,30.80
2017-11-09T19:31:18.291Z,32.50
2017-11-09T19:33:49.081Z,32.33
2017-11-09T19:36:22.047Z,30.87
2017-11-09T19:38:54.243Z,28.53
2017-11-09T19:41:22.292Z,32.63
2017-11-09T19:43:50.215Z,39.73
2017-11-09T19:46:22.111Z,31.60
2017-11-09T19:48:50.891Z,28.33
2017-11-09T19:51:21.246Z,41.00
2017-11-09T19:53:49.290Z,31.23
2017-11-09T19:56:17.985Z,30.23
2017-11-09T19:58:48.814Z,32.83
2017-11-09T20:01:24.253Z,35.73
2017-11-09T20:04:00.006Z,32.07
2017-11-09T20:06:31.510Z,29.33
2017-11-09T20:09:11.613Z,31.13
2017-11-09T20:11:40.301Z,30.93
2017-11-09T20:14:08.754Z,31.37
2017-11-09T20:16:38.747Z,24.53
2017-11-09T20:19:07.723Z,32.03
2017-11-09T20:21:35.247Z,30.80
2017-11-09T20:24:02.724Z,30.47
2017-11-09T20:26:31.293Z,27.40
2017-11-09T20:28:59.634Z,28.17
2017-11-09T20:31:27.882Z,32.10
2017-11-09T20:33:56.673Z,27.03
2017-11-09T20:36:34.562Z,33.13
2017-11-09T20:39:09.570Z,29.70
2017-11-09T20:41:46.745Z,33.90
2017-11-09T20:44:16.790Z,33.10
2017-11-09T20:46:45.230Z,28.90
2017-11-09T20:49:13.016Z,32.97
2017-11-09T20:51:42.695Z,29.97
2017-11-09T20:54:10.766Z,30.17
2017-11-09T20:56:38.701Z,33.57
2017-11-09T20:59:07.509Z,33.30
2017-11-09T21:01:35.705Z,27.27
2017-11-09T21:04:03.851Z,31.90
2017-11-09T21:06:33.041Z,30.73
2017-11-09T21:09:02.612Z,30.27
2017-11-09T21:11:31.623Z,30.37
2017-11-09T21:14:01.244Z,32.17
2017-11-09T21:16:29.525Z,26.20
2017-11-09T21:18:58.325Z,28.60
2017-11-09T21:21:29.567Z,29.37
2017-11-09T21:23:58.374Z,26.90
2017-11-09T21:26:30.362Z,31.27
2017-11-09T21:28:58.587Z,27.50
2017-11-09T21:31:27.413Z,36.70
2017-11-09T21:33:55.326Z,25.80
2017-11-09T21:36:23.946Z,22.83
2017-11-09T21:38:51.825Z,29.60
2017-11-09T21:41:20.837Z,29.10
2017-11-09T21:43:51.233Z,25.60
2017-11-09T21:46:20.104Z,24.20
2017-11-09T21:48:47.831Z,25.30
2017-11-09T21:51:15.826Z,27.90
2017-11-09T21:53:44.094Z,28.07
2017-11-09T21:56:12.300Z,27.60
2017-11-09T21:58:40.848Z,25.37
2017-11-09T22:01:11.318Z,27.30
2017-11-09T22:03:40.360Z,27.30
2017-11-09T22:06:08.121Z,36.93
2017-11-09T22:08:37.583Z,27.07
2017-11-09T22:11:06.199Z,27.00
2017-11-09T22:13:35.593Z,27.30
2017-11-09T22:16:05.100Z,24.27
2017-11-09T22:18:32.659Z,26.53
2017-11-09T22:21:01.683Z,30.27
2017-11-09T22:23:31.009Z,23.83
2017-11-09T22:25:58.898Z,25.87
2017-11-09T22:28:28.224Z,28.83
2017-11-09T22:30:56.326Z,24.50
2017-11-09T22:33:25.075Z,29.33
2017-11-09T22:35:55.407Z,25.30
2017-11-09T22:38:24.545Z,25.37
2017-11-09T22:40:52.679Z,27.03
2017-11-09T22:43:21.212Z,26.57
2017-11-09T22:45:50.759Z,26.90
2017-11-09T22:48:19.760Z,27.13
2017-11-09T22:50:49.090Z,26.23
2017-11-09T22:53:19.018Z,26.60
2017-11-09T22:55:49.670Z,25.33
2017-11-09T22:58:19.197Z,27.93
2017-11-09T23:00:47.581Z,29.80
2017-11-09T23:03:15.904Z,27.63
2017-11-09T23:05:45.375Z,25.50
2017-11-09T23:08:15.174Z,27.90
2017-11-09T23:10:45.402Z,27.90
2017-11-09T23:13:15.295Z,24.57
2017-11-09T23:15:46.471Z,26.70
2017-11-09T23:18:16.348Z,28.63
2017-11-09T23:20:46.228Z,26.83
2017-11-09T23:23:13.124Z,25.13
2017-11-09T23:25:41.700Z,28.87
2017-11-09T23:28:08.729Z,27.37
2017-11-09T23:30:35.682Z,28.50
2017-11-09T23:33:02.527Z,30.80
2017-11-09T23:35:29.474Z,31.20
2017-11-09T23:37:56.397Z,26.67
2017-11-09T23:40:23.321Z,30.43
2017-11-09T23:42:50.201Z,27.70
2017-11-09T23:45:17.077Z,25.70
2017-11-09T23:47:44.016Z,29.53
2017-11-09T23:50:10.903Z,28.23
2017-11-09T23:52:37.802Z,28.60
2017-11-09T23:55:04.781Z,32.03
2017-11-09T23:57:31.720Z,32.17
2017-11-09T23:59:58.605Z,27.67
